Time;durP1;ratioP1;P1;durP2;ratioP2;P2;SDS_P1;SDS_P2;PMS_P1;PMS_P2;Temp;Humidity;BMP_temperature;BMP_pressure;BME280_temperature;BME280_humidity;BME280_pressure;Samples;Min_cycle;Max_cycle;Signal;HPM_P1;HPM_P2
2022/01/24 00:01:45;;;;;;;;;39.75;34.50;;;;;6.84;55.87;102833.22;4961654;28;45274;-93
2022/01/24 00:04:11;;;;;;;;;42.00;36.00;;;;;6.90;55.97;102851.78;4961616;28;45318;-93
2022/01/24 00:06:37;;;;;;;;;46.75;36.25;;;;;7.35;56.23;102921.88;4962209;28;45550;-94
2022/01/24 00:09:04;;;;;;;;;40.50;35.25;;;;;7.25;56.49;102912.06;4961669;28;47566;-93
2022/01/24 00:12:18;;;;;;;;;42.75;35.75;;;;;6.79;56.38;102831.41;4961803;28;45588;-92
2022/01/24 00:27:06;;;;;;;;;38.00;30.25;;;;;7.34;56.26;102888.25;4979491;28;45226;-94
2022/01/24 00:29:31;;;;;;;;;36.25;33.00;;;;;7.19;56.18;102856.38;4961408;28;47117;-93
2022/01/24 00:31:57;;;;;;;;;36.00;32.75;;;;;7.24;55.91;102861.69;4961835;28;46024;-93
2022/01/24 00:34:25;;;;;;;;;44.75;32.75;;;;;7.69;56.19;102932.59;4964408;28;45252;-93
2022/01/24 00:36:52;;;;;;;;;38.00;34.00;;;;;7.59;55.63;102918.41;4965229;28;45414;-94
2022/01/24 00:39:22;;;;;;;;;35.50;30.50;;;;;7.69;55.92;102934.38;4964281;28;48292;-93
2022/01/24 00:45:05;;;;;;;;;30.50;30.25;;;;;7.16;55.79;102835.13;4982226;28;45309;-94
2022/01/24 00:47:14;;;;;;;;;35.50;30.25;;;;;6.99;55.66;102800.59;4974180;28;45591;-94
2022/01/24 00:54:52;;;;;;;;;38.50;32.00;;;;;7.57;55.71;102900.72;4981913;28;45223;-93
2022/01/24 00:57:19;;;;;;;;;36.00;31.50;;;;;7.73;55.76;102923.78;4964641;28;45750;-93
2022/01/24 00:59:45;;;;;;;;;34.00;30.25;;;;;7.36;55.61;102875.88;4964712;28;48156;-93
2022/01/24 01:02:12;;;;;;;;;32.50;28.75;;;;;6.93;55.36;102792.59;4965948;28;45393;-93
2022/01/24 01:07:07;;;;;;;;;30.50;28.00;;;;;7.68;55.86;102920.22;4982133;28;45442;-93
2022/01/24 01:20:44;;;;;;;;;38.25;31.75;;;;;7.64;55.66;102922.88;4981762;28;45799;-94
2022/01/24 01:23:10;;;;;;;;;40.00;31.00;;;;;7.00;56.25;102817.38;4964056;28;45337;-93
2022/01/24 01:25:38;;;;;;;;;36.25;31.75;;;;;7.03;55.57;102826.22;4964033;28;45304;-94
2022/01/24 01:28:03;;;;;;;;;37.25;33.00;;;;;6.82;55.63;102791.69;4964862;28;45469;-94
2022/01/24 01:30:37;;;;;;;;;34.75;28.75;;;;;6.95;55.91;102799.69;4963992;28;48072;-94
2022/01/24 01:33:19;;;;;;;;;33.00;32.00;;;;;7.10;55.75;102836.00;4964329;28;45620;-94
2022/01/24 01:52:50;;;;;;;;;33.75;30.50;;;;;7.01;55.75;102813.84;4981055;28;45417;-95
2022/01/24 01:55:35;;;;;;;;;36.25;27.50;;;;;6.94;55.40;102799.69;4963718;28;46216;-94
2022/01/24 01:58:01;;;;;;;;;37.75;33.50;;;;;7.18;55.44;102846.63;4963752;28;45261;-94
2022/01/24 02:00:26;;;;;;;;;31.00;26.50;;;;;7.18;55.66;102854.56;4963947;28;45249;-93
2022/01/24 02:02:51;;;;;;;;;34.75;29.25;;;;;7.23;56.22;102868.72;4963845;28;48087;-94
2022/01/24 02:05:17;;;;;;;;;29.75;27.00;;;;;6.81;55.76;102814.63;4963684;28;45705;-94
2022/01/24 02:07:48;;;;;;;;;46.50;32.00;;;;;7.12;55.81;102866.06;4963781;28;45325;-94
2022/01/24 02:10:15;;;;;;;;;36.50;32.00;;;;;7.45;55.68;102916.59;4963806;28;45250;-93
2022/01/24 02:12:40;;;;;;;;;33.75;27.50;;;;;6.26;56.01;102722.47;4963368;28;47134;-93
2022/01/24 02:15:06;;;;;;;;;36.75;31.50;;;;;6.61;55.73;102781.84;4963524;28;45817;-94
2022/01/24 02:18:28;;;;;;;;;33.00;30.50;;;;;6.46;55.72;102746.44;4963635;28;45272;-93
2022/01/24 02:25:48;;;;;;;;;32.50;27.50;;;;;6.94;55.82;102823.53;4980557;28;45207;-94
2022/01/24 02:28:16;;;;;;;;;29.00;25.50;;;;;6.64;56.13;102781.84;4963162;28;45458;-94
2022/01/24 02:31:03;;;;;;;;;34.75;31.50;;;;;7.36;55.89;102901.53;4963629;28;45581;-93
2022/01/24 02:33:29;;;;;;;;;38.00;31.25;;;;;6.77;55.78;102815.50;4962720;28;47461;-93
2022/01/24 02:35:54;;;;;;;;;29.00;27.00;;;;;6.97;56.11;102856.25;4962839;28;45288;-93
2022/01/24 02:38:54;;;;;;;;;32.75;27.00;;;;;6.48;55.97;102764.97;4963102;28;45816;-94
2022/01/24 02:48:24;;;;;;;;;34.50;32.75;;;;;7.04;56.42;102878.38;4980008;28;45316;-94
2022/01/24 02:49:36;;;;;;;;;33.00;32.75;;;;;6.98;56.37;102873.94;4979996;28;45310;-93
2022/01/24 02:52:10;;;;;;;;;38.25;30.75;;;;;6.44;56.44;102774.69;4962959;28;45336;-94
2022/01/24 02:54:38;;;;;;;;;39.75;34.25;;;;;7.11;56.55;102882.81;4962495;28;47441;-93
2022/01/24 02:57:06;;;;;;;;;33.00;31.00;;;;;6.35;56.40;102764.03;4962558;28;45336;-94
2022/01/24 02:59:31;;;;;;;;;42.75;32.25;;;;;6.85;56.46;102863.25;4962921;28;45336;-93
2022/01/24 03:01:57;;;;;;;;;30.50;29.00;;;;;6.49;56.53;102799.44;4962785;28;45247;-94
2022/01/24 03:04:23;;;;;;;;;39.75;33.25;;;;;6.95;56.98;102886.28;4962179;28;48024;-94
2022/01/24 03:06:48;;;;;;;;;42.50;34.25;;;;;6.61;57.36;102843.66;4962715;28;45512;-94
2022/01/24 03:09:14;;;;;;;;;33.50;29.50;;;;;6.91;56.90;102889.81;4961806;28;45342;-91
2022/01/24 03:14:16;;;;;;;;;33.25;31.75;;;;;6.09;57.20;102755.91;4978037;28;45494;-90
2022/01/24 03:16:41;;;;;;;;;35.00;32.50;;;;;6.08;57.09;102764.72;4959935;28;46268;-90
2022/01/24 03:19:07;;;;;;;;;36.75;31.50;;;;;5.97;57.31;102727.59;4960533;28;45263;-91
2022/01/24 03:21:32;;;;;;;;;34.50;30.00;;;;;6.21;57.00;102776.31;4960265;28;45461;-90
2022/01/24 03:23:58;;;;;;;;;32.75;31.25;;;;;6.04;57.00;102733.78;4959992;28;47221;-91
2022/01/24 03:26:23;;;;;;;;;34.50;31.25;;;;;6.34;56.84;102800.25;4960802;28;45401;-90
2022/01/24 03:28:48;;;;;;;;;33.25;30.25;;;;;5.93;57.12;102731.06;4960579;28;45240;-91
2022/01/24 03:31:14;;;;;;;;;31.00;29.25;;;;;6.32;57.23;102801.97;4961134;28;45391;-90
2022/01/24 03:33:39;;;;;;;;;32.00;28.75;;;;;6.26;57.39;102787.81;4959468;28;46951;-91
2022/01/24 03:36:05;;;;;;;;;39.00;30.50;;;;;6.08;57.50;102759.44;4960468;28;45408;-90
2022/01/24 03:38:30;;;;;;;;;30.25;27.75;;;;;6.27;57.53;102795.75;4960577;28;45390;-90
2022/01/24 03:40:55;;;;;;;;;40.50;30.50;;;;;6.58;57.02;102835.72;4960506;28;45264;-91
2022/01/24 03:43:21;;;;;;;;;29.00;28.25;;;;;5.88;57.34;102714.25;4960399;28;47029;-91
2022/01/24 03:45:58;;;;;;;;;38.00;30.50;;;;;5.90;57.37;102731.91;4959446;28;45706;-91
2022/01/24 03:48:38;;;;;;;;;35.75;31.50;;;;;5.73;57.55;102691.19;4960388;28;45400;-90
2022/01/24 03:51:03;;;;;;;;;38.50;29.75;;;;;6.71;57.76;102852.56;4960230;28;45597;-91
2022/01/24 03:53:29;;;;;;;;;33.00;30.75;;;;;5.54;57.22;102669.00;4960477;28;47298;-91
2022/01/24 03:55:54;;;;;;;;;39.00;31.00;;;;;6.33;57.49;102798.44;4960418;28;45423;-91
2022/01/24 03:58:19;;;;;;;;;40.50;29.50;;;;;5.93;57.42;102733.72;4960498;28;45377;-91
2022/01/24 04:00:45;;;;;;;;;33.50;28.75;;;;;6.21;56.98;102777.19;4960400;28;45366;-90
2022/01/24 04:03:11;;;;;;;;;28.25;26.25;;;;;5.60;57.38;102666.44;4959438;28;46914;-91
2022/01/24 04:05:36;;;;;;;;;34.25;32.00;;;;;5.53;57.41;102655.78;4960137;28;45435;-91
2022/01/24 04:08:02;;;;;;;;;32.75;29.25;;;;;6.02;57.38;102739.09;4960523;28;45343;-91
2022/01/24 04:10:27;;;;;;;;;35.00;28.75;;;;;5.85;57.14;102715.13;4981816;28;45476;-91
2022/01/24 04:12:53;;;;;;;;;28.00;27.25;;;;;5.92;57.51;102722.25;4963297;28;47936;-91
2022/01/24 04:23:30;;;;;;;;;33.50;28.25;;;;;6.28;57.02;102779.00;4980523;28;45817;-91
2022/01/24 04:25:55;;;;;;;;;31.50;29.25;;;;;6.30;57.50;102790.50;4963266;28;45469;-91
2022/01/24 04:28:21;;;;;;;;;31.50;27.25;;;;;5.78;57.59;102713.28;4963491;28;45402;-91
2022/01/24 04:30:47;;;;;;;;;33.75;28.00;;;;;6.03;57.52;102740.88;4963451;28;45438;-91
2022/01/24 04:33:13;;;;;;;;;31.75;29.75;;;;;5.63;57.37;102666.44;4962676;28;48194;-91
2022/01/24 04:35:38;;;;;;;;;40.75;32.25;;;;;6.29;57.59;102798.41;4963459;28;45389;-90
2022/01/24 04:38:04;;;;;;;;;32.00;28.25;;;;;5.91;57.33;102735.44;4963385;28;45330;-91
2022/01/24 04:40:29;;;;;;;;;26.25;24.50;;;;;5.96;57.54;102746.97;4963021;28;45335;-91
2022/01/24 04:43:04;;;;;;;;;29.50;23.75;;;;;6.63;57.48;102847.22;4962970;28;47248;-92
2022/01/24 04:45:50;;;;;;;;;32.75;30.25;;;;;5.50;57.19;102667.19;4959598;28;45290;-91
2022/01/24 04:51:07;;;;;;;;;35.25;31.25;;;;;6.16;57.47;102778.00;4966158;28;45290;-91
2022/01/24 04:53:52;;;;;;;;;35.00;32.00;;;;;6.28;57.37;102802.81;4963141;28;47322;-91
2022/01/24 04:56:17;;;;;;;;;33.75;30.00;;;;;6.62;57.67;102847.19;4962829;28;45983;-91
2022/01/24 04:58:43;;;;;;;;;35.00;29.00;;;;;6.03;57.22;102762.03;4963122;28;45486;-91
2022/01/24 05:01:08;;;;;;;;;39.25;31.00;;;;;6.09;57.41;102783.28;4962606;28;45588;-91
2022/01/24 05:03:33;;;;;;;;;31.75;27.50;;;;;5.74;57.63;102719.44;4962731;28;47104;-91
2022/01/24 05:05:59;;;;;;;;;35.00;31.50;;;;;6.54;57.67;102860.41;4961880;28;45512;-91
2022/01/24 05:08:25;;;;;;;;;37.00;28.00;;;;;5.95;57.76;102769.03;4963208;28;45341;-91
2022/01/24 05:11:01;;;;;;;;;36.50;27.75;;;;;6.00;57.46;102769.09;4962931;28;45549;-91
2022/01/24 05:24:22;;;;;;;;;31.75;28.25;;;;;5.73;58.13;102744.09;4980057;28;45298;-91
2022/01/24 05:26:48;;;;;;;;;30.50;27.00;;;;;5.70;58.15;102744.97;4962620;28;45599;-91
2022/01/24 05:29:14;;;;;;;;;33.25;29.75;;;;;5.27;58.16;102673.19;4962180;28;45271;-91
2022/01/24 05:31:39;;;;;;;;;32.50;27.50;;;;;5.83;58.13;102763.59;4959333;28;45603;-90
2022/01/24 05:34:04;;;;;;;;;35.75;29.25;;;;;5.76;57.93;102745.91;4959722;28;47228;-92
2022/01/24 05:36:30;;;;;;;;;28.00;26.75;;;;;5.24;58.23;102653.75;4958575;28;45564;-92
2022/01/24 05:38:56;;;;;;;;;32.00;29.75;;;;;5.67;57.95;102738.78;4958885;28;45529;-92
2022/01/24 05:41:22;;;;;;;;;25.75;24.75;;;;;5.53;58.41;102711.34;4962481;28;45723;-92
2022/01/24 05:43:47;;;;;;;;;32.00;26.75;;;;;5.68;58.31;102753.78;4958431;28;47463;-91
2022/01/24 05:46:12;;;;;;;;;40.00;31.75;;;;;6.19;57.98;102831.88;4950946;28;45606;-91
2022/01/24 05:48:38;;;;;;;;;34.25;29.75;;;;;6.09;58.05;102814.16;4961375;28;45573;-91
2022/01/24 05:51:03;;;;;;;;;35.50;30.25;;;;;5.56;58.33;102732.50;4961948;28;45639;-92
2022/01/24 05:53:28;;;;;;;;;29.75;28.00;;;;;5.37;58.41;102712.94;4958167;28;47315;-91
2022/01/24 05:55:54;;;;;;;;;30.50;27.00;;;;;5.67;58.53;102755.53;4976703;28;45465;-91
2022/01/24 05:58:20;;;;;;;;;32.50;29.75;;;;;6.18;58.11;102829.22;4959170;28;45743;-92
2022/01/24 06:00:45;;;;;;;;;38.50;29.00;;;;;5.48;58.44;102727.16;4960967;28;45507;-91
2022/01/24 06:03:11;;;;;;;;;34.50;24.50;;;;;5.83;58.48;102783.03;4959826;28;47061;-92
2022/01/24 06:05:36;;;;;;;;;37.00;33.25;;;;;5.84;58.42;102774.19;4960354;28;45351;-91
2022/01/24 06:08:03;;;;;;;;;33.00;29.25;;;;;5.19;58.63;102668.69;4960263;28;45313;-91
2022/01/24 06:10:28;;;;;;;;;37.75;31.50;;;;;5.73;58.19;102757.34;4960623;28;45645;-90
2022/01/24 06:12:53;;;;;;;;;38.25;33.75;;;;;5.69;58.29;102744.97;4959898;28;47976;-90
2022/01/24 06:15:19;;;;;;;;;32.50;31.00;;;;;5.78;58.61;102770.59;4960383;28;45984;-90
2022/01/24 06:17:44;;;;;;;;;32.75;29.25;;;;;5.26;58.14;102695.19;4978646;28;45692;-93
2022/01/24 06:20:10;;;;;;;;;30.25;24.50;;;;;5.72;58.26;102776.75;4963118;28;45390;-93
2022/01/24 06:22:39;;;;;;;;;37.25;33.50;;;;;5.38;58.38;102712.94;4966445;28;48309;-96
2022/01/24 06:25:07;;;;;;;;;32.50;31.00;;;;;5.35;58.08;102722.59;4989800;28;45263;-90
2022/01/24 06:27:33;;;;;;;;;33.50;28.25;;;;;6.17;58.31;102849.50;4965454;28;45276;-92
2022/01/24 06:29:58;;;;;;;;;26.75;24.25;;;;;5.87;58.47;102795.38;4964557;28;45313;-93
2022/01/24 06:32:24;;;;;;;;;36.00;33.25;;;;;4.76;57.80;102610.16;4964104;28;46963;-92
2022/01/24 06:34:49;;;;;;;;;39.00;31.00;;;;;4.91;58.57;102636.69;4964688;28;45497;-95
2022/01/24 06:37:28;;;;;;;;;34.50;34.00;;;;;4.94;58.50;102644.69;4972661;28;45295;-96
2022/01/24 06:39:55;;;;;;;;;37.50;33.75;;;;;5.66;58.09;102780.19;4964872;28;45333;-93
2022/01/24 06:42:41;;;;;;;;;;;;;;;;;;;;;
2022/01/24 06:45:08;;;;;;;;;39.50;34.50;;;;;5.46;58.19;102750.94;4976734;28;73723;-95
2022/01/24 06:47:33;;;;;;;;;46.50;34.00;;;;;5.35;58.19;102728.78;4966723;28;45322;-96
2022/01/24 06:49:59;;;;;;;;;40.75;34.25;;;;;5.18;58.20;102696.91;4965685;28;45249;-96
2022/01/24 06:52:24;;;;;;;;;38.75;36.00;;;;;4.49;58.26;102579.91;4964929;28;48201;-96
2022/01/24 06:54:49;;;;;;;;;38.75;35.25;;;;;5.40;58.52;102734.13;4964733;28;45729;-96
2022/01/24 06:57:16;;;;;;;;;43.00;35.75;;;;;4.59;58.01;102589.72;4963919;28;45503;-96
2022/01/24 06:59:43;;;;;;;;;39.25;33.25;;;;;4.48;58.31;102572.88;4964450;28;45313;-96
2022/01/24 07:02:10;;;;;;;;;42.50;33.00;;;;;4.59;58.29;102588.84;4964829;28;47415;-96
2022/01/24 07:04:36;;;;;;;;;45.25;35.50;;;;;5.15;58.26;102717.09;4965085;28;45196;-96
2022/01/24 07:07:03;;;;;;;;;40.75;33.50;;;;;5.02;58.14;102692.31;4965249;28;45192;-96
2022/01/24 07:09:29;;;;;;;;;36.75;33.50;;;;;5.13;58.23;102700.34;4965736;28;45541;-94
2022/01/24 07:11:54;;;;;;;;;34.50;28.50;;;;;4.40;57.68;102567.50;4965763;28;47149;-93
2022/01/24 07:14:20;;;;;;;;;35.50;34.25;;;;;5.26;58.30;102729.56;4962823;28;45416;-96
2022/01/24 07:19:21;;;;;;;;;35.50;32.75;;;;;6.13;58.23;102869.78;4980630;28;45336;-94
2022/01/24 07:21:46;;;;;;;;;41.25;36.00;;;;;5.85;58.09;102836.84;4963623;28;47855;-95
2022/01/24 07:24:11;;;;;;;;;34.50;31.50;;;;;5.30;58.34;102730.50;4970756;28;45276;-95
2022/01/24 07:26:37;;;;;;;;;37.75;34.25;;;;;5.15;58.46;102717.09;4964863;28;45263;-92
2022/01/24 07:29:02;;;;;;;;;40.50;34.00;;;;;5.47;58.46;102760.63;4962929;28;45382;-94
2022/01/24 07:31:28;;;;;;;;;40.25;31.50;;;;;5.09;58.63;102712.66;4962657;28;47934;-93
2022/01/24 07:33:55;;;;;;;;;38.00;35.00;;;;;4.97;58.16;102680.81;4962687;28;45670;-93
2022/01/24 07:36:21;;;;;;;;;44.50;36.25;;;;;5.26;58.08;102750.72;4962567;28;45297;-92
2022/01/24 07:38:46;;;;;;;;;45.50;36.00;;;;;6.05;58.11;102874.13;4963391;28;45666;-92
2022/01/24 07:41:11;;;;;;;;;35.25;34.00;;;;;5.02;58.15;102693.19;4960886;28;47230;-92
2022/01/24 07:43:37;;;;;;;;;46.00;40.50;;;;;4.40;58.52;102591.28;4980549;28;45476;-94
2022/01/24 07:46:03;;;;;;;;;43.75;36.00;;;;;4.55;58.26;102619.59;4970333;28;45685;-96
2022/01/24 07:48:28;;;;;;;;;43.00;36.75;;;;;4.42;58.50;102597.47;4972861;28;45219;-96
2022/01/24 07:50:53;;;;;;;;;39.50;33.75;;;;;4.56;58.22;102616.06;4971169;28;47474;-96
2022/01/24 07:53:20;;;;;;;;;41.50;35.25;;;;;4.39;58.43;102588.59;4972847;28;45241;-96
2022/01/24 07:55:47;;;;;;;;;36.25;33.25;;;;;4.46;58.32;102606.28;4975946;28;45261;-96
2022/01/24 07:58:12;;;;;;;;;38.25;34.50;;;;;4.53;58.60;102626.59;4974004;28;45586;-96
2022/01/24 08:00:38;;;;;;;;;43.50;34.50;;;;;4.43;58.76;102608.91;4971623;28;47712;-96
2022/01/24 08:03:05;;;;;;;;;45.50;36.25;;;;;4.44;58.46;102592.19;4969109;28;45321;-96
2022/01/24 08:05:30;;;;;;;;;47.50;36.25;;;;;4.72;58.44;102629.47;4968858;28;45274;-94
2022/01/24 08:07:56;;;;;;;;;40.00;35.75;;;;;4.63;58.02;102611.75;4967527;28;45211;-94
2022/01/24 08:10:21;;;;;;;;;43.25;36.25;;;;;5.72;58.25;102798.78;4965200;28;48319;-94
2022/01/24 08:12:46;;;;;;;;;33.00;31.00;;;;;5.13;58.27;102689.75;4965633;28;45281;-93
2022/01/24 08:15:16;;;;;;;;;29.00;29.00;;;;;5.21;58.12;102693.38;4965443;28;45325;-93
2022/01/24 08:17:43;;;;;;;;;47.00;39.25;;;;;5.75;57.93;102795.28;4966422;28;45292;-94
2022/01/24 08:20:10;;;;;;;;;36.50;29.75;;;;;6.33;58.07;102885.84;4965782;28;47249;-94
2022/01/24 08:22:35;;;;;;;;;25.50;23.75;;;;;5.92;58.17;102814.88;4965676;28;45284;-94
2022/01/24 08:25:04;;;;;;;;;45.50;36.50;;;;;5.36;58.24;102717.34;4965584;28;45255;-94
2022/01/24 08:27:34;;;;;;;;;41.50;36.75;;;;;6.26;57.54;102869.91;4964263;28;45359;-95
2022/01/24 08:30:00;;;;;;;;;42.25;33.50;;;;;6.32;57.69;102877.88;4966254;28;47027;-95
2022/01/24 08:32:25;;;;;;;;;38.00;35.25;;;;;5.88;57.59;102793.66;4965443;28;45342;-95
2022/01/24 08:34:54;;;;;;;;;32.50;32.25;;;;;6.32;57.62;102865.53;4965162;28;45235;-95
2022/01/24 08:37:20;;;;;;;;;37.25;33.00;;;;;5.77;57.49;102768.84;4965454;28;45571;-92
2022/01/24 08:39:45;;;;;;;;;42.00;33.50;;;;;6.25;57.67;102828.38;4964726;28;46923;-94
2022/01/24 08:47:21;;;;;;;;;41.75;32.50;;;;;6.75;57.50;102897.63;4975149;28;45716;-92
2022/01/24 08:49:47;;;;;;;;;37.00;33.50;;;;;6.64;57.25;102883.44;4962698;28;47599;-92
2022/01/24 08:52:12;;;;;;;;;33.75;31.50;;;;;6.37;57.35;102823.19;4980387;28;45510;-93
2022/01/24 08:54:37;;;;;;;;;34.50;31.25;;;;;6.24;56.79;102806.31;4963723;28;45357;-93
2022/01/24 08:57:03;;;;;;;;;38.25;33.75;;;;;6.38;56.97;102805.53;4963847;28;45573;-93
2022/01/24 08:59:30;;;;;;;;;37.50;35.25;;;;;6.30;56.64;102790.50;4962430;28;46936;-88
2022/01/24 09:01:56;;;;;;;;;32.75;31.50;;;;;6.95;56.77;102891.56;4962287;28;45328;-91
2022/01/24 09:04:21;;;;;;;;;36.00;33.00;;;;;6.48;56.57;102810.00;4961256;28;45378;-90
2022/01/24 09:06:46;;;;;;;;;35.25;32.00;;;;;6.68;56.95;102848.13;4981402;28;45424;-92
2022/01/24 09:09:14;;;;;;;;;41.25;36.25;;;;;6.54;56.53;102839.22;4961824;28;48237;-92
2022/01/24 09:11:39;;;;;;;;;40.50;35.00;;;;;6.63;56.58;102839.28;4959622;28;45533;-92
2022/01/24 09:14:06;;;;;;;;;40.50;33.00;;;;;6.57;56.91;102833.03;4955772;28;45521;-92
2022/01/24 09:16:32;;;;;;;;;39.50;36.50;;;;;7.17;56.52;102913.81;4979636;28;45565;-91
2022/01/24 09:18:58;;;;;;;;;42.50;36.25;;;;;6.88;56.59;102860.59;4962353;28;48377;-91
2022/01/24 09:21:26;;;;;;;;;31.00;30.25;;;;;6.71;56.20;102824.28;4963040;28;45462;-94
2022/01/24 09:23:51;;;;;;;;;45.75;37.25;;;;;6.76;56.39;102827.84;4962861;28;45394;-90
2022/01/24 09:26:17;;;;;;;;;42.25;36.50;;;;;6.75;56.36;102818.13;4960547;28;45562;-90
2022/01/24 09:28:43;;;;;;;;;41.00;35.00;;;;;6.76;56.09;102806.66;4961285;28;48125;-91
2022/01/24 09:31:08;;;;;;;;;44.50;38.25;;;;;7.48;56.41;102909.53;4960877;28;45447;-91
2022/01/24 09:33:34;;;;;;;;;40.25;35.75;;;;;7.29;55.89;102873.19;4960751;28;45225;-91
2022/01/24 09:36:00;;;;;;;;;49.25;41.50;;;;;6.89;55.51;102799.66;4961164;28;45579;-89
2022/01/24 09:38:32;;;;;;;;;50.50;37.50;;;;;6.95;55.76;102791.75;4961947;28;47380;-92
2022/01/24 09:41:00;;;;;;;;;34.00;31.00;;;;;7.11;55.78;102799.75;4962639;28;45518;-92
2022/01/24 09:43:26;;;;;;;;;43.75;38.50;;;;;7.30;55.17;102829.88;4980274;28;45499;-92
2022/01/24 09:45:52;;;;;;;;;48.50;38.00;;;;;7.91;56.04;102919.38;4943986;28;45422;-92
2022/01/24 09:48:18;;;;;;;;;50.50;37.75;;;;;7.62;55.01;102869.78;4959549;28;47225;-92
2022/01/24 09:50:45;;;;;;;;;45.75;36.00;;;;;8.00;55.20;102916.75;4959109;28;45531;-92
2022/01/24 09:53:14;;;;;;;;;42.50;36.25;;;;;7.32;54.45;102802.47;4962378;28;45255;-92
2022/01/24 09:55:39;;;;;;;;;35.50;34.00;;;;;8.04;54.51;102914.13;4962263;28;45565;-92
2022/01/24 09:58:05;;;;;;;;;36.75;32.50;;;;;7.74;54.53;102853.00;4961714;28;47073;-92
2022/01/24 10:00:31;;;;;;;;;45.00;37.75;;;;;7.79;54.10;102846.78;4960864;28;45421;-91
2022/01/24 10:02:58;;;;;;;;;38.00;32.25;;;;;7.77;54.48;102835.31;4960712;28;45439;-90
2022/01/24 10:05:37;;;;;;;;;46.25;38.75;;;;;7.71;54.26;102815.84;4978222;28;45432;-92
2022/01/24 10:08:05;;;;;;;;;43.50;37.50;;;;;7.92;54.02;102845.06;4976396;28;45525;-91
2022/01/24 10:10:34;;;;;;;;;43.00;36.50;;;;;8.45;53.84;102912.41;4960628;28;45364;-91
2022/01/24 10:16:37;;;;;;;;;40.50;35.00;;;;;8.55;53.79;102910.66;4975343;28;45385;-90
2022/01/24 10:19:19;;;;;;;;;38.25;33.25;;;;;8.61;53.32;102897.34;4955824;28;47310;-90
2022/01/24 10:21:45;;;;;;;;;44.00;35.00;;;;;7.89;53.68;102784.00;4960016;28;45738;-92
2022/01/24 10:24:28;;;;;;;;;47.50;41.00;;;;;8.11;53.22;102823.84;4960392;28;45409;-90
2022/01/24 10:27:23;;;;;;;;;41.25;34.75;;;;;8.27;53.42;102833.56;4970056;28;45478;-90
2022/01/24 10:29:52;;;;;;;;;48.75;36.75;;;;;8.54;52.86;102869.88;4957392;28;47135;-91
2022/01/24 10:32:36;;;;;;;;;44.50;36.50;;;;;8.79;52.67;102900.00;4954856;28;46399;-89
2022/01/24 10:35:21;;;;;;;;;49.75;40.00;;;;;8.82;52.89;102891.13;4970688;28;45474;-89
2022/01/24 10:37:52;;;;;;;;;47.00;37.50;;;;;8.64;52.86;102863.69;4960802;28;45531;-89
2022/01/24 10:41:06;;;;;;;;;59.25;45.75;;;;;8.89;53.03;102895.53;4960661;28;48485;-89
2022/01/24 10:43:32;;;;;;;;;50.75;40.25;;;;;8.72;53.06;102861.00;4960829;28;45429;-89
2022/01/24 10:45:58;;;;;;;;;48.25;39.50;;;;;8.59;52.40;102833.56;4977676;28;45405;-91
2022/01/24 10:48:29;;;;;;;;;54.75;43.25;;;;;8.67;52.64;102841.53;4976916;28;45396;-89
2022/01/24 10:51:20;;;;;;;;;51.50;40.75;;;;;9.01;52.33;102883.97;4959701;28;47987;-90
2022/01/24 10:53:55;;;;;;;;;37.25;30.50;;;;;8.22;52.47;102745.03;4961156;28;45371;-90
2022/01/24 10:56:35;;;;;;;;;46.25;37.25;;;;;9.04;52.58;102876.88;4960410;28;45397;-90
2022/01/24 10:59:17;;;;;;;;;42.75;35.75;;;;;9.07;53.35;102876.00;4960114;28;45485;-90
2022/01/24 11:01:52;;;;;;;;;44.75;37.25;;;;;8.95;52.66;102855.63;4976940;28;46211;-89
2022/01/24 11:04:18;;;;;;;;;45.75;38.00;;;;;9.12;53.02;102868.88;4977937;28;45392;-91
2022/01/24 11:06:50;;;;;;;;;83.75;67.00;;;;;8.66;53.08;102798.13;4960751;28;45385;-90
2022/01/24 11:09:23;;;;;;;;;41.25;35.00;;;;;9.18;53.17;102874.19;4978540;28;45606;-90
2022/01/24 11:11:57;;;;;;;;;38.50;34.50;;;;;9.20;53.55;102864.44;4977592;28;46307;-89
2022/01/24 11:14:25;;;;;;;;;47.50;38.25;;;;;9.25;53.04;102859.09;4941876;28;45385;-89
2022/01/24 11:16:52;;;;;;;;;45.25;37.50;;;;;9.27;52.51;102859.94;4977537;28;45396;-88
2022/01/24 11:19:36;;;;;;;;;39.75;33.75;;;;;8.96;52.22;102796.22;4976737;28;45546;-89
2022/01/24 11:22:05;;;;;;;;;40.75;35.25;;;;;9.34;53.26;102852.81;4979152;28;45417;-89
2022/01/24 11:24:45;;;;;;;;;44.50;37.00;;;;;9.37;52.36;102859.03;4977103;28;45444;-89
2022/01/24 11:27:11;;;;;;;;;46.25;37.75;;;;;9.23;53.34;102823.63;4969001;28;45350;-89
2022/01/24 11:29:37;;;;;;;;;43.50;36.50;;;;;9.08;52.53;102787.31;4977411;28;45270;-88
2022/01/24 11:32:30;;;;;;;;;42.25;35.25;;;;;9.45;51.51;102856.31;4976614;28;45428;-89
2022/01/24 11:34:57;;;;;;;;;42.50;36.00;;;;;9.14;51.46;102795.28;4957617;28;45502;-89
2022/01/24 11:37:33;;;;;;;;;42.25;34.75;;;;;9.52;51.78;102834.97;4959154;28;45543;-89
2022/01/24 11:39:59;;;;;;;;;45.00;35.25;;;;;9.48;51.42;102827.94;4959605;28;45493;-89
2022/01/24 11:42:34;;;;;;;;;41.75;34.25;;;;;9.61;51.85;102843.81;4958813;28;47434;-89
2022/01/24 11:45:04;;;;;;;;;38.00;34.00;;;;;9.19;51.13;102758.88;4976765;28;45488;-89
2022/01/24 11:47:31;;;;;;;;;45.00;37.00;;;;;9.70;51.72;102831.31;4959228;28;45446;-88
2022/01/24 11:49:58;;;;;;;;;38.00;31.00;;;;;9.40;51.61;102772.97;4958284;28;45405;-89
2022/01/24 11:52:33;;;;;;;;;36.75;33.00;;;;;9.77;51.60;102824.19;4958841;28;47355;-91
2022/01/24 11:55:15;;;;;;;;;44.00;34.75;;;;;9.87;50.95;102823.22;4976453;28;45381;-90
2022/01/24 11:57:45;;;;;;;;;47.00;37.00;;;;;9.66;50.52;102781.66;4959285;28;45377;-90
2022/01/24 12:00:10;;;;;;;;;41.00;34.25;;;;;10.04;51.39;102832.84;4976648;28;46052;-90
2022/01/24 12:02:38;;;;;;;;;36.75;33.25;;;;;10.10;51.33;102823.03;4976412;28;45424;-89
2022/01/24 12:05:14;;;;;;;;;41.25;33.25;;;;;9.87;50.25;102777.94;4959299;28;45497;-89
2022/01/24 12:07:50;;;;;;;;;48.00;36.25;;;;;9.99;50.55;102782.28;4977036;28;45463;-89
2022/01/24 12:10:46;;;;;;;;;39.00;32.25;;;;;10.30;49.63;102824.66;4976986;28;45365;-90
2022/01/24 12:13:21;;;;;;;;;40.25;35.75;;;;;10.39;50.26;102824.59;4976110;28;46665;-89
2022/01/24 12:15:49;;;;;;;;;41.25;31.75;;;;;10.44;50.93;102822.78;4973210;28;45505;-91
2022/01/24 12:18:18;;;;;;;;;39.67;33.33;;;;;10.51;49.57;102828.91;4962136;28;45470;-88
2022/01/24 12:20:43;;;;;;;;;42.00;34.75;;;;;10.58;49.62;102822.63;4977126;28;45557;-90
2022/01/24 12:23:24;;;;;;;;;40.00;33.00;;;;;10.65;49.04;102827.03;4959670;28;46306;-88
2022/01/24 12:25:54;;;;;;;;;36.33;32.00;;;;;10.23;50.57;102751.88;4972106;28;45394;-89
2022/01/24 12:28:25;;;;;;;;;40.33;33.33;;;;;10.29;49.58;102740.28;4976612;28;45429;-89
2022/01/24 12:30:58;;;;;;;;;34.67;31.33;;;;;10.14;48.50;102707.56;4963109;28;45635;-92
2022/01/24 12:33:39;;;;;;;;;32.67;31.00;;;;;10.85;48.32;102807.25;4962677;28;48305;-90
2022/01/24 12:36:08;;;;;;;;;42.67;33.00;;;;;10.27;47.94;102710.94;4958351;28;45482;-89
2022/01/24 12:38:50;;;;;;;;;38.00;32.67;;;;;10.97;48.37;102812.41;4962002;28;45329;-90
2022/01/24 12:41:25;;;;;;;;;39.00;32.00;;;;;10.41;49.24;102710.84;4962490;28;45378;-90
2022/01/24 12:43:57;;;;;;;;;73.75;53.50;;;;;10.55;48.67;102740.88;4963026;28;48055;-91
2022/01/24 12:46:26;;;;;;;;;41.25;35.75;;;;;10.50;48.30;102707.19;4980948;28;45457;-95
2022/01/24 12:48:52;;;;;;;;;35.00;31.67;;;;;11.16;48.69;102808.59;4962949;28;45485;-92
2022/01/24 12:51:21;;;;;;;;;34.00;28.33;;;;;10.89;48.85;102761.84;4963365;28;45236;-92
2022/01/24 12:53:46;;;;;;;;;35.67;30.00;;;;;10.63;48.41;102694.56;4979620;28;46340;-90
2022/01/24 12:56:13;;;;;;;;;32.00;29.67;;;;;11.22;48.26;102780.97;4979636;28;45271;-91
2022/01/24 12:58:45;;;;;;;;;38.00;32.00;;;;;10.88;47.39;102711.16;4961877;28;45330;-88
2022/01/24 13:01:27;;;;;;;;;37.33;31.00;;;;;11.46;47.42;102798.44;4961600;28;45529;-91
2022/01/24 13:03:57;;;;;;;;;36.00;32.33;;;;;11.56;47.74;102801.84;4978613;28;46212;-90